PTPN

Pohnpei International Airport

Pohnpei Island, , Federated States of Micronesia
TAF COR PTPN 212340Z 2200/2224 08011KT P6SM VCSH SCT015 SCT120 TEMPO 2200/2203 -SHRA BKN017 BKN120
Issued Valid From Valid To
Jan-21 @ 23:40 UTC
(27 minutes ago)
Jan-22 @ 00:00 UTC
(7 minutes ago)
Jan-23 @ 00:00 UTC
(in 24 hours)
Jan-22 @ 00:00 to Jan-23 @ 00:00
TAF COR PTPN 212340Z 2200/2224 08011KT P6SM VCSH SCT015 SCT120
Wind Visibility Clouds
80° at 11 knots 10,000+ meters
  • Scattered at 1,500' AGL
  • Scattered at 12,000' AGL
Temporary Jan-22 @ 00:00 to Jan-22 @ 03:00
TEMPO 2200/2203 -SHRA BKN017 BKN120
Clouds Conditions
  • Broken at 1,700' AGL
  • Broken at 12,000' AGL
  • Light Rain
TAF COR PTPN 212340Z 2200/2224 08011KT P6SM VCSH SCT015 SCT120 TEMPO 2200/2203 -SHRA BKN017 BKN120
Issued Jan-21 @ 23:40 UTC
(27 minutes ago)
Valid From Jan-22 @ 00:00 UTC
(7 minutes ago)
Valid To Jan-23 @ 00:00 UTC
(in 24 hours)
Jan-22 @ 00:00 - Jan-23 @ 00:00
Wind Visibility
80° at 11 knots 10,000+ meters
Clouds
  • Scattered at 1,500' AGL
  • Scattered at 12,000' AGL
Temporary Jan-22 @ 00:00 - Jan-22 @ 03:00
Clouds
  • Broken at 1,700' AGL
  • Broken at 12,000' AGL
Conditions
  • Light Rain